Time;durP1;ratioP1;P1;durP2;ratioP2;P2;SDS_P1;SDS_P2;PMS_P1;PMS_P2;Temp;Humidity;BMP_temperature;BMP_pressure;BME280_temperature;BME280_humidity;BME280_pressure;Samples;Min_cycle;Max_cycle;Signal;HPM_P1;HPM_P2
2021/03/26 00:01:49;;;;;;;8.10;3.30;;;;;;;;;;5056727;28;37386;-78
2021/03/26 00:04:18;;;;;;;8.03;3.67;;;;;;;;;;5051915;28;38852;-78
2021/03/26 00:06:47;;;;;;;8.70;3.17;;;;;;;;;;5071543;28;38411;-78
2021/03/26 00:09:18;;;;;;;13.23;4.50;;;;;;;;;;5056866;28;39441;-78
2021/03/26 00:11:45;;;;;;;10.23;3.50;;;;;;;;;;5070836;28;36882;-78
2021/03/26 00:14:11;;;;;;;11.70;3.53;;;;;;;;;;5071094;28;38134;-78
2021/03/26 00:16:38;;;;;;;14.03;4.30;;;;;;;;;;5057201;28;38956;-78
2021/03/26 00:19:04;;;;;;;11.00;4.37;;;;;;;;;;5056471;28;38497;-79
2021/03/26 00:21:31;;;;;;;14.50;4.30;;;;;;;;;;5059840;28;37987;-78
2021/03/26 00:23:57;;;;;;;13.17;4.13;;;;;;;;;;5057734;28;37895;-78
2021/03/26 00:26:24;;;;;;;12.83;4.10;;;;;;;;;;5056929;28;39443;-78
2021/03/26 00:28:50;;;;;;;6.93;3.90;;;;;;;;;;5055922;28;37471;-79
2021/03/26 00:31:17;;;;;;;20.07;5.60;;;;;;;;;;5059142;28;37013;-78
2021/03/26 00:33:43;;;;;;;8.60;3.83;;;;;;;;;;5059890;27;39685;-78
2021/03/26 00:36:10;;;;;;;16.00;4.60;;;;;;;;;;5057161;28;39037;-78
2021/03/26 00:38:36;;;;;;;13.30;4.53;;;;;;;;;;5059566;28;37460;-78
2021/03/26 00:41:03;;;;;;;19.07;5.50;;;;;;;;;;5067412;28;36829;-78
2021/03/26 00:43:30;;;;;;;10.87;4.97;;;;;;;;;;5062850;28;39679;-78
2021/03/26 00:45:57;;;;;;;15.93;4.77;;;;;;;;;;5055189;28;39060;-78
2021/03/26 00:48:24;;;;;;;13.87;4.43;;;;;;;;;;5055572;28;38393;-78
2021/03/26 00:50:52;;;;;;;11.83;4.77;;;;;;;;;;5056768;28;37478;-79
2021/03/26 00:53:20;;;;;;;11.37;4.50;;;;;;;;;;5055601;28;38935;-78
2021/03/26 00:55:47;;;;;;;9.63;4.40;;;;;;;;;;5056693;28;37662;-78
2021/03/26 00:58:13;;;;;;;14.00;4.30;;;;;;;;;;5057018;28;37646;-78
2021/03/26 01:00:40;;;;;;;14.10;4.00;;;;;;;;;;5050463;28;37160;-78
2021/03/26 01:03:08;;;;;;;11.87;4.30;;;;;;;;;;5057330;28;40524;-79
2021/03/26 01:05:36;;;;;;;11.27;3.83;;;;;;;;;;5056589;28;37743;-78
2021/03/26 01:08:02;;;;;;;8.70;3.53;;;;;;;;;;5050816;28;37717;-78
2021/03/26 01:10:32;;;;;;;12.90;4.50;;;;;;;;;;5058369;28;37562;-78
2021/03/26 01:12:58;;;;;;;9.70;4.43;;;;;;;;;;5057070;28;39012;-78
2021/03/26 01:15:26;;;;;;;9.50;4.10;;;;;;;;;;5073098;28;39484;-78
2021/03/26 01:17:53;;;;;;;14.57;4.27;;;;;;;;;;5062809;27;38621;-79
2021/03/26 01:20:22;;;;;;;10.77;4.00;;;;;;;;;;5058982;28;36866;-78
2021/03/26 01:22:48;;;;;;;14.47;4.37;;;;;;;;;;5060517;28;37773;-78
2021/03/26 01:25:17;;;;;;;13.60;4.83;;;;;;;;;;5075446;28;40866;-78
2021/03/26 01:27:43;;;;;;;14.00;4.87;;;;;;;;;;5063501;28;38565;-78
2021/03/26 01:30:10;;;;;;;11.47;5.33;;;;;;;;;;5057090;28;35529;-77
2021/03/26 01:32:37;;;;;;;10.30;4.70;;;;;;;;;;5056878;28;37864;-78
2021/03/26 01:35:04;;;;;;;10.40;4.00;;;;;;;;;;5053605;28;37787;-78
2021/03/26 01:37:30;;;;;;;13.03;4.20;;;;;;;;;;5057283;28;47490;-78
2021/03/26 01:39:57;;;;;;;13.33;4.43;;;;;;;;;;5057008;28;36152;-78
2021/03/26 01:42:28;;;;;;;13.43;4.80;;;;;;;;;;5062221;28;39997;-78
2021/03/26 01:44:54;;;;;;;13.70;5.03;;;;;;;;;;5059331;28;39941;-78
2021/03/26 01:47:21;;;;;;;9.80;4.80;;;;;;;;;;5075296;28;39018;-78
2021/03/26 01:49:47;;;;;;;10.00;4.73;;;;;;;;;;5059900;28;35306;-78
2021/03/26 01:52:13;;;;;;;13.57;4.80;;;;;;;;;;5059439;28;38063;-78
2021/03/26 01:54:40;;;;;;;9.57;4.33;;;;;;;;;;5058961;28;38003;-78
2021/03/26 01:57:06;;;;;;;13.80;4.87;;;;;;;;;;5058788;28;38424;-78
2021/03/26 01:59:33;;;;;;;11.43;5.07;;;;;;;;;;5057460;28;35687;-78
2021/03/26 02:02:01;;;;;;;9.80;5.33;;;;;;;;;;5056071;28;39094;-78
2021/03/26 02:04:31;;;;;;;13.03;5.73;;;;;;;;;;5065090;28;49075;-78
2021/03/26 02:06:58;;;;;;;11.13;5.33;;;;;;;;;;5068709;28;38447;-78
2021/03/26 02:09:27;;;;;;;13.73;5.73;;;;;;;;;;5080993;28;35645;-78
2021/03/26 02:11:54;;;;;;;12.67;5.27;;;;;;;;;;5079798;28;37844;-79
2021/03/26 02:14:22;;;;;;;14.43;4.93;;;;;;;;;;5059790;28;39214;-78
2021/03/26 02:16:49;;;;;;;17.70;6.30;;;;;;;;;;5059623;28;39322;-78
2021/03/26 02:19:24;;;;;;;15.47;6.40;;;;;;;;;;5059390;28;36772;-77
2021/03/26 02:21:51;;;;;;;10.63;5.63;;;;;;;;;;5063695;28;39426;-79
2021/03/26 02:24:18;;;;;;;13.80;5.47;;;;;;;;;;5061493;28;38517;-78
2021/03/26 02:26:46;;;;;;;13.23;5.83;;;;;;;;;;5059951;28;38855;-78
2021/03/26 02:29:27;;;;;;;15.83;6.80;;;;;;;;;;5060169;28;37259;-78
2021/03/26 02:32:00;;;;;;;13.83;6.00;;;;;;;;;;5058229;28;38151;-78
2021/03/26 02:34:27;;;;;;;14.33;6.30;;;;;;;;;;5060685;28;38012;-78
2021/03/26 02:37:12;;;;;;;12.97;6.53;;;;;;;;;;5060471;28;37718;-78
2021/03/26 02:39:40;;;;;;;12.97;7.43;;;;;;;;;;5058249;28;48988;-79
2021/03/26 02:42:12;;;;;;;16.13;7.53;;;;;;;;;;5074678;28;37771;-78
2021/03/26 02:44:39;;;;;;;;;;;;;;;;;;5057697;28;37761;-78
2021/03/26 02:47:05;;;;;;;15.83;7.10;;;;;;;;;;5059232;28;38350;-78
2021/03/26 02:49:31;;;;;;;12.07;7.80;;;;;;;;;;5058359;28;36652;-79
2021/03/26 02:52:02;;;;;;;13.23;7.70;;;;;;;;;;5075541;28;37834;-78
2021/03/26 02:54:31;;;;;;;16.43;8.80;;;;;;;;;;5052002;28;47388;-79
2021/03/26 02:57:01;;;;;;;15.20;8.17;;;;;;;;;;5075854;28;37672;-78
2021/03/26 02:59:44;;;;;;;17.53;9.03;;;;;;;;;;5060914;28;46807;-79
2021/03/26 03:02:12;;;;;;;18.05;9.13;;;;;;;;;;5086314;28;37910;-78
2021/03/26 03:04:51;;;;;;;20.57;9.73;;;;;;;;;;5067035;28;37634;-78
2021/03/26 03:07:28;;;;;;;17.23;8.73;;;;;;;;;;5081642;28;37563;-78
2021/03/26 03:10:10;;;;;;;17.07;9.67;;;;;;;;;;5079656;28;37352;-77
2021/03/26 03:12:38;;;;;;;16.47;9.47;;;;;;;;;;5065034;28;49050;-78
2021/03/26 03:15:12;;;;;;;20.73;10.40;;;;;;;;;;5063138;28;39037;-78
2021/03/26 03:17:41;;;;;;;18.10;10.50;;;;;;;;;;5066533;28;39201;-78
2021/03/26 03:20:17;;;;;;;18.90;10.93;;;;;;;;;;5062832;28;36148;-78
2021/03/26 03:22:57;;;;;;;19.00;11.47;;;;;;;;;;5079527;28;39122;-78
2021/03/26 03:25:25;;;;;;;16.73;10.87;;;;;;;;;;5065324;28;40498;-78
2021/03/26 03:28:10;;;;;;;19.17;12.30;;;;;;;;;;5058373;28;37619;-78
2021/03/26 03:30:47;;;;;;;17.37;11.83;;;;;;;;;;5057037;28;48880;-78
2021/03/26 03:33:18;;;;;;;18.30;11.37;;;;;;;;;;5062215;28;39521;-78
2021/03/26 03:36:04;;;;;;;26.07;14.43;;;;;;;;;;5058300;28;39740;-79
2021/03/26 03:38:50;;;;;;;19.67;11.83;;;;;;;;;;5057371;28;50029;-78
2021/03/26 03:41:31;;;;;;;20.47;12.63;;;;;;;;;;5061393;28;37321;-78
2021/03/26 03:44:04;;;;;;;23.43;12.10;;;;;;;;;;5055277;28;39654;-78
2021/03/26 03:46:30;;;;;;;;;;;;;;;;;;5057873;28;49170;-78
2021/03/26 03:49:11;;;;;;;21.93;11.87;;;;;;;;;;5053071;28;38760;-78
2021/03/26 03:51:42;;;;;;;20.37;12.97;;;;;;;;;;5058147;28;47376;-79
2021/03/26 03:54:13;;;;;;;21.73;11.87;;;;;;;;;;5056694;28;37550;-78
2021/03/26 03:56:57;;;;;;;19.57;12.20;;;;;;;;;;5058356;28;38247;-78
2021/03/26 03:59:30;;;;;;;18.13;12.17;;;;;;;;;;5068279;28;37268;-78
2021/03/26 04:01:59;;;;;;;22.60;12.27;;;;;;;;;;5060161;28;35862;-78
2021/03/26 04:04:32;;;;;;;23.90;13.30;;;;;;;;;;5065395;27;39032;-78
2021/03/26 04:07:03;;;;;;;21.27;12.73;;;;;;;;;;5071414;28;39005;-78
2021/03/26 04:09:36;;;;;;;20.43;13.13;;;;;;;;;;5068525;28;46886;-79
2021/03/26 04:12:03;;;;;;;24.03;13.83;;;;;;;;;;5067096;28;35846;-78
2021/03/26 04:14:38;;;;;;;24.50;13.13;;;;;;;;;;5066657;28;39246;-79
2021/03/26 04:17:16;;;;;;;20.90;13.50;;;;;;;;;;5061834;28;39763;-79
2021/03/26 04:19:45;;;;;;;21.10;13.20;;;;;;;;;;5067544;28;38274;-79
2021/03/26 04:22:13;;;;;;;24.43;13.97;;;;;;;;;;5071229;28;37306;-79
2021/03/26 04:24:44;;;;;;;21.50;12.70;;;;;;;;;;5069966;28;39694;-79
2021/03/26 04:27:19;;;;;;;19.63;12.93;;;;;;;;;;5074869;28;37847;-78
2021/03/26 04:30:04;;;;;;;21.00;13.07;;;;;;;;;;5059048;28;38640;-78
2021/03/26 04:32:31;;;;;;;23.37;13.80;;;;;;;;;;5052122;28;47069;-78
2021/03/26 04:34:57;;;;;;;20.13;12.80;;;;;;;;;;5056025;28;38969;-78
2021/03/26 04:37:24;;;;;;;24.57;13.63;;;;;;;;;;5054321;28;37955;-78
2021/03/26 04:39:53;;;;;;;23.63;13.47;;;;;;;;;;5057067;28;37939;-78
2021/03/26 04:42:24;;;;;;;24.57;13.43;;;;;;;;;;5065537;28;38729;-78
2021/03/26 04:45:11;;;;;;;22.97;13.53;;;;;;;;;;5055561;28;39637;-78
2021/03/26 04:47:45;;;;;;;20.30;12.57;;;;;;;;;;5047627;28;46801;-78
2021/03/26 04:50:31;;;;;;;25.63;13.43;;;;;;;;;;5070687;28;37420;-78
2021/03/26 04:53:03;;;;;;;23.43;14.60;;;;;;;;;;5025577;28;35944;-79
2021/03/26 04:55:34;;;;;;;24.43;13.50;;;;;;;;;;5051793;28;47066;-78
2021/03/26 04:58:00;;;;;;;22.73;14.13;;;;;;;;;;5058752;28;39062;-78
2021/03/26 05:00:28;;;;;;;22.93;13.90;;;;;;;;;;5052528;28;40111;-79
2021/03/26 05:03:18;;;;;;;23.50;14.07;;;;;;;;;;5056834;28;36306;-78
2021/03/26 05:05:47;;;;;;;24.83;14.07;;;;;;;;;;5046626;28;48503;-79
2021/03/26 05:08:15;;;;;;;26.13;14.00;;;;;;;;;;5054405;28;39175;-78
2021/03/26 05:10:41;;;;;;;25.80;14.57;;;;;;;;;;5054753;28;37637;-78
2021/03/26 05:13:16;;;;;;;21.13;13.87;;;;;;;;;;5054492;27;37774;-78
2021/03/26 05:15:49;;;;;;;22.80;13.60;;;;;;;;;;5072488;28;37493;-78
2021/03/26 05:18:23;;;;;;;24.98;13.63;;;;;;;;;;5057441;28;39377;-78
2021/03/26 05:20:56;;;;;;;22.67;13.43;;;;;;;;;;5051581;28;38085;-78
2021/03/26 05:23:26;;;;;;;19.80;12.52;;;;;;;;;;5057361;28;37174;-78
2021/03/26 05:25:56;;;;;;;21.73;13.50;;;;;;;;;;5056322;28;39930;-78
2021/03/26 05:28:27;;;;;;;26.50;13.90;;;;;;;;;;5055710;28;39085;-78
2021/03/26 05:30:54;;;;;;;22.23;13.70;;;;;;;;;;5051738;28;37730;-79
2021/03/26 05:33:30;;;;;;;21.77;13.53;;;;;;;;;;5061081;28;37477;-78
2021/03/26 05:36:02;;;;;;;26.47;13.47;;;;;;;;;;5055662;28;38555;-78
2021/03/26 05:38:32;;;;;;;19.35;12.32;;;;;;;;;;5060604;28;49923;-78
2021/03/26 05:41:05;;;;;;;24.40;12.93;;;;;;;;;;5060585;28;38193;-78
2021/03/26 05:43:37;;;;;;;20.48;12.50;;;;;;;;;;5052529;28;46957;-78
2021/03/26 05:46:20;;;;;;;22.05;13.02;;;;;;;;;;5069595;28;37420;-78
2021/03/26 05:49:04;;;;;;;22.08;12.85;;;;;;;;;;5053097;28;40098;-78
2021/03/26 05:51:49;;;;;;;20.37;13.27;;;;;;;;;;5055596;28;46991;-78
2021/03/26 05:54:22;;;;;;;21.33;12.50;;;;;;;;;;5062399;28;36723;-79
2021/03/26 05:57:01;;;;;;;19.40;12.18;;;;;;;;;;5053559;28;37600;-78
2021/03/26 05:59:33;;;;;;;23.27;14.10;;;;;;;;;;5055743;28;40698;-79
2021/03/26 06:01:59;;;;;;;25.77;13.57;;;;;;;;;;5055954;28;38648;-78
2021/03/26 06:04:34;;;;;;;25.57;14.00;;;;;;;;;;5058730;28;35952;-78
2021/03/26 06:07:01;;;;;;;23.40;13.90;;;;;;;;;;5064337;28;39135;-78
2021/03/26 06:09:36;;;;;;;20.60;13.60;;;;;;;;;;5053105;28;47078;-78
2021/03/26 06:12:05;;;;;;;23.33;13.67;;;;;;;;;;5059511;28;38774;-78
2021/03/26 06:14:32;;;;;;;30.33;15.63;;;;;;;;;;5072768;28;36034;-78
2021/03/26 06:16:58;;;;;;;22.10;13.63;;;;;;;;;;5054456;28;38150;-78
2021/03/26 06:19:30;;;;;;;18.77;12.87;;;;;;;;;;5056110;28;38735;-78
2021/03/26 06:21:59;;;;;;;21.45;13.23;;;;;;;;;;5074500;28;38017;-77
2021/03/26 06:24:45;;;;;;;20.63;12.77;;;;;;;;;;5070734;28;36230;-78
2021/03/26 06:27:17;;;;;;;23.83;12.90;;;;;;;;;;5057805;28;36256;-78
2021/03/26 06:29:59;;;;;;;24.38;13.35;;;;;;;;;;5054668;28;37775;-78
2021/03/26 06:32:25;;;;;;;20.20;13.27;;;;;;;;;;5057979;27;39662;-78
2021/03/26 06:34:52;;;;;;;24.60;14.30;;;;;;;;;;5062661;28;35685;-78
2021/03/26 06:37:38;;;;;;;26.20;13.50;;;;;;;;;;5059927;28;40154;-78
2021/03/26 06:40:17;;;;;;;20.57;13.23;;;;;;;;;;5061520;28;38994;-79
2021/03/26 06:42:47;;;;;;;20.00;13.10;;;;;;;;;;5067048;27;38593;-78
2021/03/26 06:45:32;;;;;;;20.37;12.93;;;;;;;;;;5063250;28;35978;-78
2021/03/26 06:48:20;;;;;;;21.27;12.87;;;;;;;;;;5058356;28;37632;-78
2021/03/26 06:50:56;;;;;;;24.80;13.50;;;;;;;;;;5056276;28;48122;-77
2021/03/26 06:53:40;;;;;;;23.60;14.33;;;;;;;;;;5057287;28;38822;-78
2021/03/26 06:56:19;;;;;;;23.60;13.40;;;;;;;;;;5053006;28;35991;-78
2021/03/26 06:58:46;;;;;;;21.93;13.43;;;;;;;;;;5072592;28;39367;-79
2021/03/26 07:01:16;;;;;;;22.00;14.07;;;;;;;;;;5055613;28;39190;-79
2021/03/26 07:04:01;;;;;;;27.53;13.70;;;;;;;;;;5055966;28;38228;-80
2021/03/26 07:06:43;;;;;;;21.60;13.37;;;;;;;;;;5059933;28;47036;-78
2021/03/26 07:09:10;;;;;;;21.08;12.90;;;;;;;;;;5067631;27;38485;-78
2021/03/26 07:11:55;;;;;;;26.50;14.40;;;;;;;;;;5066817;28;38652;-78
2021/03/26 07:14:43;;;;;;;24.07;14.60;;;;;;;;;;5061340;28;41032;-78
2021/03/26 07:17:19;;;;;;;23.57;13.10;;;;;;;;;;5065979;28;37265;-78
2021/03/26 07:19:51;;;;;;;23.80;13.80;;;;;;;;;;5059633;28;38106;-78
2021/03/26 07:22:17;;;;;;;21.35;13.52;;;;;;;;;;5064758;28;38113;-78
2021/03/26 07:24:44;;;;;;;25.70;14.80;;;;;;;;;;5064910;28;37533;-78
2021/03/26 07:27:27;;;;;;;24.47;13.87;;;;;;;;;;5065902;28;37241;-78
2021/03/26 07:29:53;;;;;;;21.63;13.80;;;;;;;;;;5061934;28;40733;-78
2021/03/26 07:32:42;;;;;;;23.30;14.77;;;;;;;;;;5072484;28;38498;-79
2021/03/26 07:35:18;;;;;;;26.50;14.73;;;;;;;;;;5049997;28;37397;-79
2021/03/26 07:37:51;;;;;;;23.93;14.17;;;;;;;;;;5058850;28;36530;-78
2021/03/26 07:40:29;;;;;;;23.77;13.67;;;;;;;;;;5061486;28;39854;-78
2021/03/26 07:43:06;;;;;;;24.30;14.37;;;;;;;;;;5078732;28;38117;-79
2021/03/26 07:45:38;;;;;;;21.50;13.70;;;;;;;;;;5060333;28;48597;-79
2021/03/26 07:48:23;;;;;;;20.20;13.20;;;;;;;;;;5064203;28;37013;-78
2021/03/26 07:50:57;;;;;;;19.47;12.47;;;;;;;;;;5075854;28;38291;-79
2021/03/26 07:53:23;;;;;;;18.77;11.73;;;;;;;;;;5060204;28;39828;-79
2021/03/26 07:55:55;;;;;;;24.30;12.77;;;;;;;;;;5062256;28;38708;-79
2021/03/26 07:58:33;;;;;;;22.80;12.90;;;;;;;;;;5072499;28;39640;-78
2021/03/26 08:01:09;;;;;;;21.90;12.67;;;;;;;;;;5058105;28;39850;-79
2021/03/26 08:03:39;;;;;;;20.80;12.37;;;;;;;;;;5077073;28;47330;-79
2021/03/26 08:06:24;;;;;;;18.67;12.83;;;;;;;;;;5061979;28;38099;-79
2021/03/26 08:09:09;;;;;;;22.10;12.00;;;;;;;;;;5057032;28;35908;-77
2021/03/26 08:11:51;;;;;;;27.70;14.02;;;;;;;;;;5057804;28;48875;-80
2021/03/26 08:14:42;;;;;;;19.77;12.38;;;;;;;;;;5064742;28;39013;-80
2021/03/26 08:17:16;;;;;;;23.50;12.40;;;;;;;;;;5071200;28;37507;-79
2021/03/26 08:19:47;;;;;;;24.27;13.20;;;;;;;;;;5059835;27;36969;-80
2021/03/26 08:22:21;;;;;;;24.23;13.67;;;;;;;;;;5080185;28;37976;-79
2021/03/26 08:25:06;;;;;;;20.33;12.40;;;;;;;;;;5059643;28;38035;-79
2021/03/26 08:27:51;;;;;;;23.05;13.35;;;;;;;;;;5056070;28;48420;-79
2021/03/26 08:30:31;;;;;;;21.17;12.60;;;;;;;;;;5069171;28;35881;-77
2021/03/26 08:33:14;;;;;;;20.85;13.38;;;;;;;;;;5066234;28;39792;-78
2021/03/26 08:35:53;;;;;;;21.45;12.80;;;;;;;;;;5073159;28;47039;-80
2021/03/26 08:38:22;;;;;;;26.00;13.48;;;;;;;;;;5065706;28;39102;-78
2021/03/26 08:40:59;;;;;;;22.55;12.23;;;;;;;;;;5060104;28;36836;-77
2021/03/26 08:43:27;;;;;;;22.73;12.73;;;;;;;;;;5067050;28;40241;-78
2021/03/26 08:46:12;;;;;;;22.52;11.38;;;;;;;;;;5066214;28;38889;-77
2021/03/26 08:48:52;;;;;;;20.85;10.98;;;;;;;;;;5066596;28;47034;-77
2021/03/26 08:51:51;;;;;;;21.13;11.77;;;;;;;;;;5064769;28;37535;-77
2021/03/26 08:54:32;;;;;;;16.80;10.25;;;;;;;;;;5024544;28;40291;-77
2021/03/26 08:57:05;;;;;;;16.45;10.40;;;;;;;;;;5070029;28;38683;-78
2021/03/26 08:59:41;;;;;;;19.77;10.90;;;;;;;;;;5062846;28;48910;-80
2021/03/26 09:02:29;;;;;;;20.55;10.90;;;;;;;;;;5059548;28;36640;-77
2021/03/26 09:05:15;;;;;;;21.70;10.38;;;;;;;;;;5066037;28;39545;-77
2021/03/26 09:08:00;;;;;;;20.67;10.50;;;;;;;;;;5052513;28;47168;-77
2021/03/26 09:10:33;;;;;;;20.55;10.45;;;;;;;;;;5064092;28;37268;-77
2021/03/26 09:13:27;;;;;;;20.20;11.38;;;;;;;;;;5056412;28;36105;-77
2021/03/26 09:16:08;;;;;;;18.45;10.18;;;;;;;;;;5069496;28;47081;-78
2021/03/26 09:18:46;;;;;;;16.47;9.73;;;;;;;;;;5055868;28;48726;-78
2021/03/26 09:21:31;;;;;;;17.50;9.13;;;;;;;;;;5069752;28;38795;-77
2021/03/26 09:24:16;;;;;;;17.20;9.32;;;;;;;;;;5049104;28;37771;-77
2021/03/26 09:27:01;;;;;;;19.40;10.02;;;;;;;;;;5052498;28;47379;-78
2021/03/26 09:29:43;;;;;;;17.52;10.18;;;;;;;;;;5058792;28;49189;-77
2021/03/26 09:32:18;;;;;;;16.00;9.73;;;;;;;;;;5077618;28;37279;-77
2021/03/26 09:35:00;;;;;;;15.55;8.18;;;;;;;;;;5072449;28;36059;-77
2021/03/26 09:37:35;;;;;;;13.73;8.48;;;;;;;;;;5060968;28;39177;-77
2021/03/26 09:40:03;;;;;;;14.60;8.32;;;;;;;;;;5068050;28;38100;-77
2021/03/26 09:42:38;;;;;;;16.58;8.18;;;;;;;;;;5073195;28;39683;-77
2021/03/26 09:45:17;;;;;;;14.80;7.13;;;;;;;;;;5066965;28;37534;-77
2021/03/26 09:47:57;;;;;;;14.80;7.78;;;;;;;;;;5067839;27;39432;-77
2021/03/26 09:50:34;;;;;;;10.50;6.43;;;;;;;;;;5064752;28;39028;-81
2021/03/26 09:53:07;;;;;;;12.02;6.28;;;;;;;;;;5070669;28;38402;-76
2021/03/26 09:55:35;;;;;;;10.35;6.18;;;;;;;;;;5073473;28;47569;-77
2021/03/26 09:58:11;;;;;;;10.63;6.68;;;;;;;;;;5070841;28;39056;-77
2021/03/26 10:00:48;;;;;;;9.85;6.10;;;;;;;;;;5062463;28;48806;-77
2021/03/26 10:03:26;;;;;;;14.70;7.05;;;;;;;;;;5067725;28;37536;-77
2021/03/26 10:06:05;;;;;;;12.80;7.30;;;;;;;;;;5055340;28;35561;-77
2021/03/26 10:11:07;;;;;;;8.93;5.50;;;;;;;;;;5066578;28;40264;-78
2021/03/26 10:13:40;;;;;;;12.63;5.80;;;;;;;;;;5084686;28;37851;-78
2021/03/26 10:16:10;;;;;;;11.00;5.63;;;;;;;;;;5066433;28;36574;-77
2021/03/26 10:18:45;;;;;;;10.65;5.13;;;;;;;;;;5069341;28;37734;-80
2021/03/26 10:21:14;;;;;;;10.73;5.07;;;;;;;;;;5073687;28;38207;-77
2021/03/26 10:23:43;;;;;;;12.18;5.03;;;;;;;;;;5067725;28;37577;-76
2021/03/26 10:26:18;;;;;;;11.48;5.03;;;;;;;;;;5065976;28;37249;-76
2021/03/26 10:28:47;;;;;;;12.38;4.32;;;;;;;;;;5073435;27;39000;-76
2021/03/26 10:31:18;;;;;;;11.25;4.90;;;;;;;;;;5064998;28;39921;-76
2021/03/26 10:33:55;;;;;;;8.55;4.55;;;;;;;;;;5058506;28;37916;-77
2021/03/26 10:36:21;;;;;;;10.85;4.97;;;;;;;;;;5066689;28;35768;-77
2021/03/26 10:38:49;;;;;;;10.52;4.80;;;;;;;;;;5066156;28;38971;-77
2021/03/26 10:41:25;;;;;;;12.02;4.93;;;;;;;;;;5059295;28;38756;-76
2021/03/26 10:44:09;;;;;;;6.30;4.03;;;;;;;;;;5070386;28;37806;-76
2021/03/26 10:46:36;;;;;;;9.93;4.50;;;;;;;;;;5063228;28;47287;-78
2021/03/26 10:49:22;;;;;;;6.63;4.70;;;;;;;;;;5066760;28;39879;-77
2021/03/26 10:51:48;;;;;;;10.05;4.10;;;;;;;;;;5070379;28;37972;-78
2021/03/26 10:54:24;;;;;;;10.98;4.47;;;;;;;;;;5058784;28;37715;-77
2021/03/26 10:56:55;;;;;;;9.00;4.20;;;;;;;;;;5070206;28;36587;-77
2021/03/26 10:59:30;;;;;;;15.07;5.18;;;;;;;;;;5085547;27;39471;-77
2021/03/26 11:02:02;;;;;;;8.25;3.70;;;;;;;;;;5069157;28;38858;-77
2021/03/26 11:04:36;;;;;;;5.45;3.63;;;;;;;;;;5085432;28;47961;-77
2021/03/26 11:07:08;;;;;;;7.28;3.58;;;;;;;;;;5062765;28;36767;-78
2021/03/26 11:09:44;;;;;;;8.80;3.88;;;;;;;;;;5083981;28;37436;-77
2021/03/26 11:12:36;;;;;;;9.02;3.75;;;;;;;;;;5079566;28;37752;-79
2021/03/26 11:15:13;;;;;;;8.02;3.70;;;;;;;;;;5062435;28;40303;-77
2021/03/26 11:17:58;;;;;;;6.28;3.53;;;;;;;;;;5069707;28;47892;-77
2021/03/26 11:20:33;;;;;;;6.85;3.05;;;;;;;;;;5071027;28;39105;-79
2021/03/26 11:23:03;;;;;;;10.35;3.22;;;;;;;;;;5069963;28;39750;-77
2021/03/26 11:25:32;;;;;;;7.38;3.92;;;;;;;;;;5066363;28;48588;-76
2021/03/26 11:27:59;;;;;;;5.15;3.20;;;;;;;;;;5065937;28;37873;-77
2021/03/26 11:30:44;;;;;;;7.90;3.63;;;;;;;;;;5065451;28;38453;-77
2021/03/26 11:33:16;;;;;;;9.52;3.70;;;;;;;;;;5065401;28;39245;-76
2021/03/26 11:35:45;;;;;;;4.55;3.88;;;;;;;;;;5065131;28;38529;-76
2021/03/26 11:38:15;;;;;;;6.78;3.83;;;;;;;;;;5072962;28;36197;-77
2021/03/26 11:40:48;;;;;;;7.90;3.80;;;;;;;;;;5068663;28;39646;-77
2021/03/26 11:43:17;;;;;;;7.63;3.90;;;;;;;;;;5063456;28;39685;-77
2021/03/26 11:45:56;;;;;;;11.43;3.60;;;;;;;;;;5069237;28;38397;-78
2021/03/26 11:48:28;;;;;;;8.27;3.88;;;;;;;;;;5068655;28;37915;-77
2021/03/26 11:50:59;;;;;;;5.50;3.33;;;;;;;;;;5068385;28;38908;-77
2021/03/26 11:53:25;;;;;;;7.80;3.63;;;;;;;;;;5052637;28;40172;-77
2021/03/26 11:55:56;;;;;;;8.63;3.28;;;;;;;;;;5052485;28;38793;-77
2021/03/26 11:58:29;;;;;;;8.38;3.58;;;;;;;;;;5060972;28;35896;-77
2021/03/26 12:00:57;;;;;;;4.13;2.90;;;;;;;;;;5073206;28;39022;-77
2021/03/26 12:03:29;;;;;;;9.15;3.13;;;;;;;;;;5068010;28;39604;-77
2021/03/26 12:06:17;;;;;;;11.10;3.65;;;;;;;;;;5076690;28;38428;-78
2021/03/26 12:09:02;;;;;;;7.38;3.47;;;;;;;;;;5069826;28;49004;-77
2021/03/26 12:11:32;;;;;;;12.77;3.08;;;;;;;;;;5064877;28;48942;-80
2021/03/26 12:14:15;;;;;;;5.63;3.15;;;;;;;;;;5061037;28;39066;-79
2021/03/26 12:16:54;;;;;;;7.57;3.58;;;;;;;;;;5067658;28;49035;-77
2021/03/26 12:19:22;;;;;;;5.95;3.05;;;;;;;;;;5062613;28;37791;-77
2021/03/26 12:22:07;;;;;;;6.47;3.40;;;;;;;;;;5065718;28;38443;-78
2021/03/26 12:24:42;;;;;;;6.53;3.80;;;;;;;;;;5064447;28;47007;-77
2021/03/26 12:27:15;;;;;;;7.18;4.38;;;;;;;;;;5064194;28;38537;-77
2021/03/26 12:29:58;;;;;;;9.70;3.83;;;;;;;;;;5057767;28;37280;-77
2021/03/26 12:32:27;;;;;;;7.15;3.53;;;;;;;;;;5067190;27;38923;-77
2021/03/26 12:35:00;;;;;;;15.98;3.90;;;;;;;;;;5056281;28;37718;-77
2021/03/26 12:37:47;;;;;;;7.75;4.25;;;;;;;;;;5067349;28;38711;-78
2021/03/26 12:40:34;;;;;;;6.35;3.47;;;;;;;;;;5063176;28;35760;-78
2021/03/26 12:43:07;;;;;;;9.70;3.40;;;;;;;;;;5066634;28;38302;-78
2021/03/26 12:45:33;;;;;;;;;;;;;;;;;;5068999;28;49265;-78
2021/03/26 12:48:25;;;;;;;10.32;2.50;;;;;;;;;;5078442;28;40281;-77
2021/03/26 12:50:57;;;;;;;7.55;2.20;;;;;;;;;;5038021;28;48768;-78
2021/03/26 12:53:33;;;;;;;5.85;2.50;;;;;;;;;;5068662;28;38378;-78
2021/03/26 12:56:18;;;;;;;7.88;2.25;;;;;;;;;;5063216;28;37352;-78
2021/03/26 12:58:44;;;;;;;3.50;2.40;;;;;;;;;;5064689;28;49283;-80
2021/03/26 13:01:15;;;;;;;5.18;2.80;;;;;;;;;;5069157;28;36600;-79
2021/03/26 13:03:52;;;;;;;4.43;2.47;;;;;;;;;;5066572;28;37770;-80
2021/03/26 13:06:28;;;;;;;7.88;2.85;;;;;;;;;;5075439;28;37860;-80
2021/03/26 13:08:56;;;;;;;7.57;3.15;;;;;;;;;;5061540;28;37636;-78
2021/03/26 13:11:28;;;;;;;6.68;3.15;;;;;;;;;;5062902;28;37012;-78
2021/03/26 13:13:57;;;;;;;5.50;3.58;;;;;;;;;;5065535;28;39603;-79
2021/03/26 13:16:24;;;;;;;8.50;3.42;;;;;;;;;;5065551;28;38078;-78
2021/03/26 13:19:01;;;;;;;10.07;3.25;;;;;;;;;;5063336;28;38747;-79
2021/03/26 13:21:40;;;;;;;5.93;3.33;;;;;;;;;;5060373;28;47377;-79
2021/03/26 13:24:14;;;;;;;6.75;3.65;;;;;;;;;;5071142;28;39342;-79
2021/03/26 13:26:40;;;;;;;7.22;3.92;;;;;;;;;;5055671;28;39072;-79
2021/03/26 13:29:29;;;;;;;8.77;3.47;;;;;;;;;;5062820;28;38629;-79
2021/03/26 13:31:57;;;;;;;7.32;3.63;;;;;;;;;;5063887;28;36265;-77
2021/03/26 13:34:31;;;;;;;8.43;3.03;;;;;;;;;;5063122;28;40237;-79
2021/03/26 13:37:00;;;;;;;7.20;3.42;;;;;;;;;;5066552;28;37573;-79
2021/03/26 13:39:26;;;;;;;5.18;2.92;;;;;;;;;;5074661;28;37523;-80
2021/03/26 13:41:58;;;;;;;9.10;2.67;;;;;;;;;;5063904;28;36824;-79
2021/03/26 13:44:43;;;;;;;5.03;2.72;;;;;;;;;;5064321;28;40036;-79
2021/03/26 13:47:12;;;;;;;8.18;2.67;;;;;;;;;;5063868;28;37982;-79
2021/03/26 13:49:51;;;;;;;5.90;2.72;;;;;;;;;;5066345;28;38807;-77
2021/03/26 13:52:23;;;;;;;7.15;2.60;;;;;;;;;;5068643;28;37992;-78
2021/03/26 13:54:50;;;;;;;6.57;3.65;;;;;;;;;;5065940;28;38595;-76
2021/03/26 13:57:30;;;;;;;9.65;2.60;;;;;;;;;;5060410;28;39020;-78
2021/03/26 14:00:02;;;;;;;7.57;2.70;;;;;;;;;;5067113;28;37127;-77
2021/03/26 14:02:29;;;;;;;5.72;2.50;;;;;;;;;;5062541;28;46990;-78
2021/03/26 14:04:58;;;;;;;6.82;1.90;;;;;;;;;;5065103;28;39283;-76
2021/03/26 14:07:27;;;;;;;3.30;2.63;;;;;;;;;;5058859;28;40826;-77
2021/03/26 14:10:03;;;;;;;5.95;2.42;;;;;;;;;;5060872;28;37200;-76
2021/03/26 14:12:31;;;;;;;4.95;2.20;;;;;;;;;;5061067;28;49102;-79
2021/03/26 14:15:01;;;;;;;6.97;2.20;;;;;;;;;;5066022;28;37913;-79
2021/03/26 14:17:45;;;;;;;5.88;2.53;;;;;;;;;;5064002;28;39311;-79
2021/03/26 14:20:29;;;;;;;6.65;2.10;;;;;;;;;;5076538;28;37342;-76
2021/03/26 14:23:00;;;;;;;5.35;2.08;;;;;;;;;;5060293;28;37942;-79
2021/03/26 14:25:32;;;;;;;4.95;2.03;;;;;;;;;;5066920;28;48072;-78
2021/03/26 14:28:08;;;;;;;4.53;2.13;;;;;;;;;;5071715;28;39396;-79
2021/03/26 14:30:50;;;;;;;4.05;2.10;;;;;;;;;;5055586;28;48085;-78
2021/03/26 14:33:33;;;;;;;5.95;2.15;;;;;;;;;;5056953;28;36511;-79
2021/03/26 14:36:18;;;;;;;4.85;2.10;;;;;;;;;;5081363;28;40746;-79
2021/03/26 14:38:47;;;;;;;10.27;2.85;;;;;;;;;;5068082;28;48825;-81
2021/03/26 14:41:25;;;;;;;8.55;2.35;;;;;;;;;;5069165;28;38195;-77
2021/03/26 14:44:12;;;;;;;5.75;2.53;;;;;;;;;;5067183;28;37148;-78
2021/03/26 14:47:04;;;;;;;7.30;2.65;;;;;;;;;;5069619;28;48715;-77
2021/03/26 14:49:49;;;;;;;4.95;2.03;;;;;;;;;;5068953;28;49219;-77
2021/03/26 14:52:19;;;;;;;5.07;2.13;;;;;;;;;;5069379;28;37159;-77
2021/03/26 14:54:48;;;;;;;6.00;2.75;;;;;;;;;;5069152;28;36919;-78
2021/03/26 14:57:20;;;;;;;4.68;2.05;;;;;;;;;;5068730;27;37714;-78
2021/03/26 15:00:05;;;;;;;6.13;2.35;;;;;;;;;;5068585;28;39986;-77
2021/03/26 15:03:01;;;;;;;9.80;2.53;;;;;;;;;;5052094;28;46973;-78
2021/03/26 15:05:30;;;;;;;6.07;2.45;;;;;;;;;;5066590;28;47283;-77
2021/03/26 15:07:58;;;;;;;6.57;2.58;;;;;;;;;;5070850;28;38846;-78
2021/03/26 15:10:34;;;;;;;8.32;2.75;;;;;;;;;;5069700;28;37980;-78